Time;durP1;ratioP1;P1;durP2;ratioP2;P2;SDS_P1;SDS_P2;PMS_P1;PMS_P2;Temp;Humidity;BMP_temperature;BMP_pressure;BME280_temperature;BME280_humidity;BME280_pressure;Samples;Min_cycle;Max_cycle;Signal;HPM_P1;HPM_P2
2022/05/12 00:05:33;;;;;;;6.63;2.22;;;15.20;99.90;;;;;;12499894;28;20044;-80
2022/05/12 00:11:35;;;;;;;8.55;2.33;;;14.90;99.90;;;;;;12503535;28;20099;-80
2022/05/12 00:17:37;;;;;;;5.40;2.40;;;14.70;99.90;;;;;;12513973;28;20429;-81
2022/05/12 00:23:39;;;;;;;6.47;2.10;;;14.60;99.90;;;;;;12510954;28;20103;-80
2022/05/12 00:29:41;;;;;;;8.02;2.25;;;14.70;99.90;;;;;;12505956;28;20053;-81
2022/05/12 00:35:45;;;;;;;8.73;2.25;;;14.60;99.90;;;;;;12498568;28;20049;-79
2022/05/12 00:41:47;;;;;;;;;;;14.70;99.90;;;;;;12518352;28;20057;-80
2022/05/12 00:47:49;;;;;;;5.45;2.08;;;14.50;99.90;;;;;;12513779;28;19928;-80
2022/05/12 00:53:53;;;;;;;5.85;2.13;;;14.60;99.90;;;;;;12515546;28;20628;-80
2022/05/12 00:59:57;;;;;;;8.82;2.03;;;14.50;99.90;;;;;;12516287;28;20106;-81
2022/05/12 01:06:03;;;;;;;5.13;2.35;;;14.50;99.90;;;;;;12549404;28;20085;-80
2022/05/12 01:12:05;;;;;;;7.03;2.28;;;14.60;99.90;;;;;;12542533;28;20093;-80
2022/05/12 01:18:17;;;;;;;4.00;2.25;;;14.50;99.90;;;;;;12489580;28;20119;-82
2022/05/12 01:24:22;;;;;;;5.07;1.63;;;14.60;99.90;;;;;;12519503;28;20069;-79
2022/05/12 01:30:25;;;;;;;2.65;1.13;;;14.50;99.90;;;;;;12521907;28;20098;-79
2022/05/12 01:36:27;;;;;;;3.70;0.80;;;14.40;99.90;;;;;;12506274;28;20049;-80
2022/05/12 01:42:29;;;;;;;2.67;0.60;;;14.20;99.90;;;;;;12518331;28;20562;-79
2022/05/12 01:48:31;;;;;;;3.05;0.70;;;13.80;99.90;;;;;;12528323;28;20516;-79
2022/05/12 01:54:33;;;;;;;5.43;1.27;;;13.60;99.90;;;;;;12521879;28;20048;-80
2022/05/12 02:00:36;;;;;;;4.90;1.23;;;13.50;99.90;;;;;;12522197;28;20055;-79
2022/05/12 02:06:37;;;;;;;3.28;0.75;;;13.30;99.90;;;;;;12491467;28;20106;-78
2022/05/12 02:12:39;;;;;;;6.75;0.90;;;13.10;99.90;;;;;;12517355;28;20041;-78
2022/05/12 02:18:43;;;;;;;4.20;0.73;;;12.90;99.90;;;;;;12514057;28;20052;-78
2022/05/12 02:24:45;;;;;;;2.30;0.70;;;13.00;99.90;;;;;;12513641;28;20102;-78
2022/05/12 02:30:47;;;;;;;3.42;0.77;;;12.90;99.90;;;;;;12518886;28;20037;-79
2022/05/12 02:37:02;;;;;;;3.33;0.68;;;12.70;99.90;;;;;;12518468;28;20053;-79
2022/05/12 02:43:23;;;;;;;3.22;0.80;;;12.60;99.90;;;;;;12491795;28;20535;-79
2022/05/12 02:49:25;;;;;;;2.53;0.80;;;12.60;99.90;;;;;;12514777;28;20052;-78
2022/05/12 02:55:27;;;;;;;3.92;1.00;;;12.50;99.90;;;;;;12511609;28;20118;-79
2022/05/12 03:01:28;;;;;;;2.50;0.60;;;12.60;99.90;;;;;;12514194;28;20049;-79
2022/05/12 03:07:30;;;;;;;3.45;0.85;;;12.40;99.90;;;;;;12494362;28;20080;-78
2022/05/12 03:13:32;;;;;;;1.35;0.73;;;12.50;99.90;;;;;;12514231;28;20052;-79
2022/05/12 03:19:34;;;;;;;2.85;0.90;;;12.30;99.90;;;;;;12503624;28;20061;-79
2022/05/12 03:25:36;;;;;;;3.72;0.73;;;12.20;99.90;;;;;;12512169;28;20044;-79
2022/05/12 03:31:38;;;;;;;4.72;0.70;;;12.10;99.90;;;;;;12498974;28;20053;-79
2022/05/12 03:37:40;;;;;;;2.97;0.80;;;12.00;99.90;;;;;;12511142;28;20106;-79
2022/05/12 03:50:13;;;;;;;2.92;0.80;;;12.10;99.90;;;;;;12512044;28;20049;-79
2022/05/12 03:56:20;;;;;;;2.15;0.73;;;12.10;99.90;;;;;;12500040;28;20053;-79
2022/05/12 04:02:22;;;;;;;2.75;0.77;;;12.20;99.90;;;;;;12509990;28;20049;-80
2022/05/12 04:08:24;;;;;;;3.13;0.90;;;12.10;99.90;;;;;;12487148;28;20440;-79
2022/05/12 04:14:25;;;;;;;2.70;0.80;;;12.00;99.90;;;;;;12509398;28;20114;-78
2022/05/12 04:20:29;;;;;;;2.25;0.73;;;12.00;99.90;;;;;;12500110;28;21613;-79
2022/05/12 04:26:32;;;;;;;3.30;1.10;;;12.00;99.90;;;;;;12509684;28;20059;-79
2022/05/12 04:32:34;;;;;;;4.95;0.90;;;12.00;99.90;;;;;;12520335;28;20458;-79
2022/05/12 04:38:36;;;;;;;3.20;0.80;;;11.80;99.90;;;;;;12526722;28;20077;-79
2022/05/12 04:44:38;;;;;;;3.65;0.80;;;11.80;99.90;;;;;;12545836;28;20112;-79
2022/05/12 04:50:40;;;;;;;4.50;1.08;;;11.80;99.90;;;;;;12535389;28;20141;-79
2022/05/12 04:56:42;;;;;;;3.70;0.95;;;12.00;99.90;;;;;;12510208;28;20092;-79
2022/05/12 05:02:43;;;;;;;3.60;0.70;;;12.00;99.90;;;;;;12506837;28;20049;-79
2022/05/12 05:08:45;;;;;;;3.78;1.10;;;12.10;99.90;;;;;;12490929;28;20084;-79
2022/05/12 05:14:47;;;;;;;3.10;0.77;;;12.00;99.90;;;;;;12509180;28;21095;-79
2022/05/12 05:20:50;;;;;;;4.90;0.90;;;12.20;99.90;;;;;;12511010;28;20049;-79
2022/05/12 05:26:52;;;;;;;5.55;1.00;;;12.40;99.90;;;;;;12514320;28;20049;-78
2022/05/12 05:32:54;;;;;;;4.75;1.05;;;12.50;99.90;;;;;;12493584;28;20057;-79
2022/05/12 05:38:56;;;;;;;9.57;1.00;;;12.20;99.90;;;;;;12504451;28;20366;-81
2022/05/12 05:44:58;;;;;;;2.83;0.93;;;12.20;99.90;;;;;;12489251;28;20504;-79
2022/05/12 05:57:33;;;;;;;4.57;1.00;;;12.30;99.90;;;;;;12505149;28;20053;-79
2022/05/12 06:03:36;;;;;;;4.03;0.98;;;12.40;99.90;;;;;;12512099;28;20041;-80
2022/05/12 06:09:37;;;;;;;9.57;1.67;;;12.40;99.90;;;;;;12516845;28;20103;-79
2022/05/12 06:15:40;;;;;;;7.40;1.30;;;12.50;99.90;;;;;;12512870;28;20053;-78
2022/05/12 06:21:42;;;;;;;7.03;1.40;;;12.50;99.90;;;;;;12512692;28;20405;-78
2022/05/12 06:27:45;;;;;;;5.05;1.38;;;12.60;99.90;;;;;;12506395;28;20053;-78
2022/05/12 06:33:48;;;;;;;6.07;1.48;;;12.60;99.90;;;;;;12508975;28;20518;-79
2022/05/12 06:39:50;;;;;;;5.85;1.65;;;12.70;99.90;;;;;;12486795;28;20068;-80
2022/05/12 06:45:52;;;;;;;4.88;1.50;;;12.80;99.90;;;;;;12547454;28;20052;-79
2022/05/12 06:51:55;;;;;;;5.75;1.48;;;12.90;99.90;;;;;;12564095;28;20045;-79
2022/05/12 06:57:57;;;;;;;4.55;1.38;;;12.90;99.90;;;;;;12560379;28;20649;-79
2022/05/12 07:04:00;;;;;;;5.30;1.70;;;13.00;99.90;;;;;;12557222;28;20044;-79
2022/05/12 07:10:04;;;;;;;5.40;1.58;;;13.00;99.90;;;;;;12560641;28;20095;-79
2022/05/12 07:16:07;;;;;;;5.50;2.10;;;13.10;99.90;;;;;;12558911;28;20052;-78
2022/05/12 07:28:33;;;;;;;4.18;1.40;;;13.30;99.90;;;;;;12558273;28;20831;-79
2022/05/12 07:34:36;;;;;;;8.80;2.20;;;13.50;99.90;;;;;;12566628;28;20056;-79
2022/05/12 07:40:38;;;;;;;7.25;1.83;;;13.70;99.90;;;;;;12545931;28;20153;-78
2022/05/12 07:46:40;;;;;;;6.50;2.55;;;14.00;99.90;;;;;;12540954;28;20050;-79
2022/05/12 07:52:42;;;;;;;6.32;2.30;;;14.20;99.90;;;;;;12509233;28;20052;-79
2022/05/12 07:58:44;;;;;;;6.18;2.63;;;14.20;99.90;;;;;;12559750;28;20052;-78
2022/05/12 08:04:46;;;;;;;6.10;2.10;;;14.20;99.90;;;;;;12554413;28;20096;-79
2022/05/12 08:10:48;;;;;;;6.47;2.58;;;14.30;99.90;;;;;;12558940;28;20842;-78
2022/05/12 08:16:50;;;;;;;6.47;2.15;;;14.20;99.90;;;;;;12540255;28;20606;-79
2022/05/12 08:22:52;;;;;;;8.45;2.13;;;14.30;99.90;;;;;;12556936;28;20148;-79
2022/05/12 08:28:54;;;;;;;3.22;1.80;;;14.20;99.90;;;;;;12555325;28;20483;-79
2022/05/12 08:34:56;;;;;;;7.03;1.75;;;14.60;99.90;;;;;;12499605;28;20079;-78
2022/05/12 08:41:03;;;;;;;7.60;2.13;;;14.70;99.90;;;;;;12480840;28;20090;-79
2022/05/12 08:47:11;;;;;;;5.20;1.73;;;14.80;99.90;;;;;;12509038;28;20060;-79
2022/05/12 08:53:17;;;;;;;5.20;1.58;;;14.70;99.90;;;;;;12509695;28;20497;-78
2022/05/12 08:59:18;;;;;;;5.22;1.40;;;14.90;99.90;;;;;;12509797;28;20143;-79
2022/05/12 09:05:29;;;;;;;4.40;1.50;;;14.90;99.90;;;;;;12505788;28;20045;-78
2022/05/12 09:11:39;;;;;;;3.67;1.27;;;14.90;99.90;;;;;;12493581;28;20414;-79
2022/05/12 09:17:51;;;;;;;4.35;1.33;;;15.30;99.90;;;;;;12478794;28;20420;-79
2022/05/12 09:23:54;;;;;;;1.88;1.20;;;15.70;99.90;;;;;;12514698;28;20049;-77
2022/05/12 09:29:55;;;;;;;5.78;1.50;;;15.90;99.90;;;;;;12511198;28;20045;-79
2022/05/12 09:36:01;;;;;;;6.07;1.80;;;15.80;99.90;;;;;;12501668;28;20044;-79
2022/05/12 09:42:06;;;;;;;4.43;1.33;;;15.80;99.90;;;;;;12508086;28;20144;-80
2022/05/12 09:48:23;;;;;;;4.72;1.65;;;16.20;99.90;;;;;;12523691;28;20040;-79
2022/05/12 09:54:28;;;;;;;4.25;1.50;;;16.70;99.90;;;;;;12521608;28;20164;-79
2022/05/12 10:00:40;;;;;;;4.70;1.67;;;16.70;99.90;;;;;;12515822;28;20049;-79
2022/05/12 10:07:53;;;;;;;4.88;1.88;;;16.20;99.90;;;;;;12521458;28;20171;-79
2022/05/12 10:13:47;;;;;;;6.43;2.28;;;16.00;99.90;;;;;;12511372;28;20056;-79
2022/05/12 10:19:49;;;;;;;;;;;15.90;99.90;;;;;;12497132;28;20060;-79
2022/05/12 10:26:12;;;;;;;4.72;1.80;;;16.60;99.90;;;;;;12514212;28;19924;-79
2022/05/12 10:32:57;;;;;;;4.95;1.60;;;17.10;99.90;;;;;;12498887;28;20068;-78
2022/05/12 10:39:11;;;;;;;5.18;1.90;;;16.90;99.90;;;;;;12446114;28;20111;-79
2022/05/12 10:45:38;;;;;;;4.68;1.70;;;16.60;99.90;;;;;;12515051;28;20045;-79
2022/05/12 10:51:47;;;;;;;4.00;1.60;;;16.50;99.90;;;;;;12510081;28;20036;-79
2022/05/12 10:57:54;;;;;;;6.13;2.08;;;16.60;99.90;;;;;;12500505;28;20052;-78
2022/05/12 11:04:11;;;;;;;5.93;2.00;;;16.90;99.90;;;;;;12496232;28;20565;-80
2022/05/12 11:10:35;;;;;;;5.63;1.60;;;17.00;99.90;;;;;;12517036;28;20045;-79
2022/05/12 11:16:50;;;;;;;3.60;1.50;;;16.80;99.90;;;;;;12516666;28;20048;-80
2022/05/12 11:23:17;;;;;;;6.40;1.50;;;17.20;99.90;;;;;;12516015;28;20048;-79
2022/05/12 11:29:58;;;;;;;4.95;1.63;;;17.80;99.90;;;;;;12516819;28;20382;-79
2022/05/12 11:36:01;;;;;;;5.60;1.38;;;17.80;99.90;;;;;;12511488;28;20481;-80
2022/05/12 11:42:17;;;;;;;4.47;1.33;;;18.10;99.90;;;;;;12511707;28;20094;-80
2022/05/12 11:48:32;;;;;;;5.88;1.67;;;18.50;99.90;;;;;;12513332;28;20056;-80
2022/05/12 11:54:41;;;;;;;5.43;1.58;;;18.80;99.90;;;;;;12544227;28;20121;-80
2022/05/12 12:00:49;;;;;;;5.03;1.52;;;18.70;99.90;;;;;;12559544;28;20048;-79
2022/05/12 12:06:57;;;;;;;3.42;1.75;;;19.00;99.90;;;;;;12560926;28;20040;-78
2022/05/12 12:13:31;;;;;;;4.35;1.30;;;19.20;99.90;;;;;;12558186;28;20067;-79
2022/05/12 12:19:50;;;;;;;4.65;1.33;;;19.00;99.90;;;;;;12560721;28;20045;-79
2022/05/12 12:26:22;;;;;;;4.47;1.65;;;19.30;99.90;;;;;;12555907;28;20113;-82
2022/05/12 12:32:34;;;;;;;3.63;1.60;;;19.20;99.90;;;;;;12557676;28;20094;-79
2022/05/12 12:38:44;;;;;;;6.35;1.50;;;19.40;99.90;;;;;;12565886;28;20100;-81
2022/05/12 12:44:51;;;;;;;4.20;1.33;;;19.30;99.90;;;;;;12557229;28;20090;-79
2022/05/12 12:50:54;;;;;;;4.13;1.38;;;18.80;99.90;;;;;;12552699;28;20488;-79
2022/05/12 12:57:03;;;;;;;5.57;1.27;;;18.50;99.90;;;;;;12542841;28;20459;-79
2022/05/12 13:03:22;;;;;;;4.80;1.38;;;18.10;99.90;;;;;;12520779;28;20394;-79
2022/05/12 13:09:31;;;;;;;4.10;1.30;;;17.90;99.90;;;;;;12501552;28;20136;-79
2022/05/12 13:15:35;;;;;;;9.73;1.20;;;17.70;99.90;;;;;;12504998;28;20485;-79
2022/05/12 13:21:44;;;;;;;3.22;1.15;;;18.00;99.90;;;;;;12504427;28;20045;-79
2022/05/12 13:27:47;;;;;;;4.60;1.17;;;18.20;99.90;;;;;;12512655;28;20053;-79
2022/05/12 13:34:13;;;;;;;5.53;1.42;;;18.00;99.90;;;;;;12524980;28;20102;-79
2022/05/12 13:40:49;;;;;;;6.63;1.95;;;17.90;99.90;;;;;;12498335;28;20091;-79
2022/05/12 13:46:59;;;;;;;3.28;1.90;;;18.40;99.90;;;;;;12506716;28;20686;-79
2022/05/12 13:53:02;;;;;;;5.45;1.52;;;18.60;99.90;;;;;;12520177;28;20114;-79
2022/05/12 13:59:28;;;;;;;4.30;1.15;;;18.60;99.90;;;;;;12518905;28;20080;-79
2022/05/12 14:05:31;;;;;;;5.88;1.20;;;18.70;99.90;;;;;;12517604;28;20045;-80
2022/05/12 14:11:33;;;;;;;4.75;1.50;;;18.70;99.90;;;;;;12514020;28;20045;-80
2022/05/12 14:24:01;;;;;;;4.53;1.88;;;19.30;99.90;;;;;;12501291;28;20051;-80
2022/05/12 14:30:03;;;;;;;6.22;1.65;;;19.00;99.90;;;;;;12515948;28;20474;-79
2022/05/12 14:36:08;;;;;;;5.38;2.00;;;19.00;99.90;;;;;;12502431;28;20091;-79
2022/05/12 14:42:10;;;;;;;3.67;1.60;;;19.20;99.90;;;;;;12500909;28;20045;-79
2022/05/12 14:48:12;;;;;;;5.05;2.05;;;19.20;99.90;;;;;;12509749;28;20048;-78
2022/05/12 14:54:14;;;;;;;4.70;1.55;;;19.20;99.90;;;;;;12514080;28;20052;-80
2022/05/12 15:00:16;;;;;;;5.82;1.58;;;19.00;99.90;;;;;;12503846;28;20067;-79
2022/05/12 15:06:21;;;;;;;5.32;1.55;;;18.80;99.90;;;;;;12517662;28;20045;-78
2022/05/12 15:12:23;;;;;;;7.75;1.85;;;18.80;99.90;;;;;;12514402;28;20053;-79
2022/05/12 15:18:25;;;;;;;6.22;1.88;;;18.80;99.90;;;;;;12505555;28;20125;-79
2022/05/12 15:24:30;;;;;;;5.13;1.65;;;18.60;99.90;;;;;;12519562;28;20048;-80
2022/05/12 15:30:32;;;;;;;6.53;1.73;;;18.50;99.90;;;;;;12513801;28;20153;-79
2022/05/12 15:36:37;;;;;;;5.03;1.80;;;18.40;99.90;;;;;;12497000;28;20064;-79
2022/05/12 15:42:40;;;;;;;5.85;2.15;;;18.40;99.90;;;;;;12499410;28;20045;-79
2022/05/12 15:48:42;;;;;;;5.35;1.60;;;18.50;99.90;;;;;;12484528;28;20132;-80
2022/05/12 15:54:44;;;;;;;5.70;1.92;;;18.50;99.90;;;;;;12504858;28;20866;-79
2022/05/12 16:00:46;;;;;;;4.45;1.80;;;18.50;99.90;;;;;;12502151;28;20393;-79
2022/05/12 16:06:48;;;;;;;4.78;1.83;;;18.60;99.90;;;;;;12496194;28;20049;-79
2022/05/12 16:12:59;;;;;;;5.03;2.15;;;18.60;99.90;;;;;;12515645;28;20059;-79
2022/05/12 16:19:01;;;;;;;6.15;3.08;;;18.60;99.90;;;;;;12519122;28;20064;-80
2022/05/12 16:25:03;;;;;;;5.80;2.25;;;18.50;99.90;;;;;;12558915;28;20052;-79
2022/05/12 16:31:09;;;;;;;5.18;2.72;;;18.50;99.90;;;;;;12536554;28;20046;-80
2022/05/12 16:37:12;;;;;;;6.70;2.70;;;18.40;99.90;;;;;;12523423;28;20405;-79
2022/05/12 16:43:14;;;;;;;7.43;2.30;;;18.50;99.90;;;;;;12508797;28;20087;-79
2022/05/12 16:49:22;;;;;;;4.70;2.15;;;18.40;99.90;;;;;;12543554;28;20059;-78
2022/05/12 16:55:26;;;;;;;7.18;3.17;;;18.30;99.90;;;;;;12527517;28;20037;-79
2022/05/12 17:01:28;;;;;;;7.45;3.20;;;18.30;99.90;;;;;;12482973;28;20102;-79
2022/05/12 17:07:30;;;;;;;5.68;2.50;;;18.50;99.90;;;;;;12507122;28;20098;-79
2022/05/12 17:13:32;;;;;;;4.28;2.35;;;18.70;99.90;;;;;;12505351;28;20072;-78
2022/05/12 17:19:34;;;;;;;5.07;2.47;;;18.40;99.90;;;;;;12505551;28;20092;-79
2022/05/12 17:25:36;;;;;;;5.63;2.28;;;18.10;99.90;;;;;;12504392;28;20052;-80
2022/05/12 17:31:39;;;;;;;5.60;2.40;;;18.10;99.90;;;;;;12510294;28;20281;-80
2022/05/12 17:37:44;;;;;;;7.07;2.80;;;18.10;99.90;;;;;;12527274;28;20417;-80
2022/05/12 17:43:46;;;;;;;5.80;2.58;;;18.10;99.90;;;;;;12550894;28;20146;-80
2022/05/12 17:49:48;;;;;;;5.43;2.80;;;18.40;99.90;;;;;;12559119;28;20053;-79
2022/05/12 17:55:51;;;;;;;6.82;2.55;;;18.70;99.90;;;;;;12526982;28;20076;-79
2022/05/12 18:01:53;;;;;;;5.97;2.75;;;18.60;99.90;;;;;;12536836;28;20121;-79
2022/05/12 18:07:55;;;;;;;5.90;2.38;;;18.30;99.90;;;;;;12541199;28;20053;-79
2022/05/12 18:13:57;;;;;;;5.32;2.60;;;18.10;99.90;;;;;;12522897;28;20072;-79
2022/05/12 18:19:59;;;;;;;5.68;2.38;;;18.00;99.90;;;;;;12517346;28;20057;-79
2022/05/12 18:26:01;;;;;;;6.07;2.28;;;17.80;99.90;;;;;;12515830;28;20040;-79
2022/05/12 18:32:03;;;;;;;8.18;2.90;;;17.60;99.90;;;;;;12516824;28;20087;-79
2022/05/12 18:38:05;;;;;;;7.47;2.72;;;17.50;99.90;;;;;;12518708;28;20059;-80
2022/05/12 18:44:07;;;;;;;5.78;2.83;;;17.30;99.90;;;;;;12481572;28;20048;-79
2022/05/12 18:50:13;;;;;;;6.27;2.93;;;17.20;99.90;;;;;;12512973;28;20045;-79
2022/05/12 18:56:15;;;;;;;8.23;3.13;;;16.90;99.90;;;;;;12500993;28;20139;-79
2022/05/12 19:02:18;;;;;;;5.65;3.53;;;16.70;99.90;;;;;;12499822;28;20094;-79
2022/05/12 19:08:20;;;;;;;8.45;3.90;;;16.50;99.90;;;;;;12501407;28;20143;-79
2022/05/12 19:14:22;;;;;;;8.23;3.38;;;16.10;99.90;;;;;;12502367;28;20040;-79
2022/05/12 19:20:37;;;;;;;6.88;3.35;;;16.10;99.90;;;;;;12514342;28;20044;-80
2022/05/12 19:26:40;;;;;;;8.77;3.40;;;15.80;99.90;;;;;;12514403;28;20044;-79
2022/05/12 19:32:42;;;;;;;10.97;3.37;;;15.80;99.90;;;;;;12514343;28;20550;-80
2022/05/12 19:38:45;;;;;;;8.95;3.70;;;15.60;99.90;;;;;;12485144;28;20126;-79
2022/05/12 19:44:47;;;;;;;5.53;2.95;;;15.60;99.90;;;;;;12522677;28;20102;-80
2022/05/12 19:50:50;;;;;;;6.82;3.10;;;15.50;99.90;;;;;;12531840;28;20118;-79
2022/05/12 19:56:52;;;;;;;8.20;3.28;;;15.40;99.90;;;;;;12516514;28;20132;-79
2022/05/12 20:02:54;;;;;;;7.68;3.22;;;15.30;99.90;;;;;;12504427;28;20052;-79
2022/05/12 20:08:56;;;;;;;7.78;3.15;;;15.20;99.90;;;;;;12500217;28;20541;-79
2022/05/12 20:14:58;;;;;;;7.40;3.38;;;15.20;99.90;;;;;;12520970;28;20040;-79
2022/05/12 20:21:00;;;;;;;6.10;3.35;;;15.10;99.90;;;;;;12515707;28;22293;-79
2022/05/12 20:27:02;;;;;;;8.00;3.45;;;15.10;99.90;;;;;;12497528;28;20088;-79
2022/05/12 20:33:05;;;;;;;5.40;3.38;;;15.00;99.90;;;;;;12518783;28;20053;-79
2022/05/12 20:39:09;;;;;;;5.43;3.35;;;14.90;99.90;;;;;;12511603;28;20049;-79
2022/05/12 20:51:36;;;;;;;7.05;3.70;;;14.80;99.90;;;;;;12508857;28;20514;-79
2022/05/12 20:57:38;;;;;;;7.50;3.63;;;14.90;99.90;;;;;;12503952;28;20444;-79
2022/05/12 21:03:39;;;;;;;8.98;3.75;;;14.80;99.90;;;;;;12489278;28;20106;-79
2022/05/12 21:09:41;;;;;;;9.10;4.00;;;14.70;99.90;;;;;;12511888;28;20052;-79
2022/05/12 21:15:43;;;;;;;5.05;3.38;;;14.70;99.90;;;;;;12510343;28;20049;-79
2022/05/12 21:21:46;;;;;;;8.13;3.83;;;14.60;99.90;;;;;;12494921;28;20060;-79
2022/05/12 21:27:48;;;;;;;8.52;3.40;;;14.70;99.90;;;;;;12510715;28;20062;-80
2022/05/12 21:33:50;;;;;;;7.75;3.38;;;14.70;99.90;;;;;;12515007;28;20052;-79
2022/05/12 21:39:53;;;;;;;6.75;3.95;;;14.70;99.90;;;;;;12514459;28;20056;-79
2022/05/12 21:45:55;;;;;;;7.22;3.92;;;14.70;99.90;;;;;;12504901;28;20135;-79
2022/05/12 21:51:57;;;;;;;7.20;4.20;;;14.70;99.90;;;;;;12514475;28;20041;-79
2022/05/12 22:04:28;;;;;;;8.20;3.90;;;14.60;99.90;;;;;;12505154;28;20045;-79
2022/05/12 22:10:29;;;;;;;9.98;4.28;;;14.60;99.90;;;;;;12513126;28;20052;-78
2022/05/12 22:16:31;;;;;;;7.38;4.22;;;14.60;99.90;;;;;;12526170;28;20094;-79
2022/05/12 22:22:33;;;;;;;8.07;4.80;;;14.70;99.90;;;;;;12509646;28;20045;-79
2022/05/12 22:28:35;;;;;;;6.95;4.20;;;14.70;99.90;;;;;;12544293;28;20055;-80
2022/05/12 22:34:37;;;;;;;6.78;4.30;;;14.50;99.90;;;;;;12534004;28;20065;-78
2022/05/12 22:40:39;;;;;;;9.98;4.40;;;14.40;99.90;;;;;;12512753;28;20405;-80
2022/05/12 22:46:42;;;;;;;6.75;4.20;;;14.20;99.90;;;;;;12515778;28;20048;-80
2022/05/12 22:52:44;;;;;;;8.55;4.68;;;14.20;99.90;;;;;;12508980;28;20049;-79
2022/05/12 22:58:46;;;;;;;7.75;4.47;;;14.30;99.90;;;;;;12525466;28;20459;-79
2022/05/12 23:04:48;;;;;;;6.97;4.38;;;14.30;99.90;;;;;;12518014;28;20056;-79
2022/05/12 23:10:50;;;;;;;15.10;5.70;;;14.00;99.90;;;;;;12515350;28;20520;-79
2022/05/12 23:16:52;;;;;;;7.07;5.25;;;13.70;99.90;;;;;;12513057;28;20099;-80
2022/05/12 23:22:53;;;;;;;7.93;5.10;;;13.50;99.90;;;;;;12513580;28;20055;-79
2022/05/12 23:28:55;;;;;;;8.88;4.50;;;13.40;99.90;;;;;;12513599;28;20577;-79
2022/05/12 23:34:57;;;;;;;7.65;4.50;;;13.40;99.90;;;;;;12502720;28;20054;-80
2022/05/12 23:41:19;;;;;;;8.55;4.53;;;13.60;99.90;;;;;;12509470;28;20036;-79
2022/05/12 23:47:20;;;;;;;8.00;4.50;;;13.60;99.90;;;;;;12516991;28;20110;-79
2022/05/12 23:53:22;;;;;;;5.35;3.70;;;13.60;99.90;;;;;;12513424;28;20487;-79
2022/05/12 23:59:25;;;;;;;7.20;4.57;;;13.50;99.90;;;;;;12497229;28;20553;-79
